Alton, NH

7:20 AM EDT on October 31, 2014 (GMT -0400)
Griswold Scout Reservation | Change Station
CLOSE
Current Station
Personal Weather Station
Location: Gilmanton, NH
Elevation: 751 ft
Nearby Weather Stations

Elev 751 ft 43.49 °N, 71.35 °W | Updated 11 minutes ago

Overcast
Overcast
36.7 °F
Feels Like 37 °F
N
0.0
Wind Variable Wind from WNW

Today
High -- | Low -- °F
--% Chance of Precip.
Yesterday
High -- | Low -- °F
Precip. -- in
7:19 AM 5:37 PM
First Quarter, 54% visible
Pressure 30.02 in
Visibility 10.0 miles
Clouds Overcast 5000 ft
Windchill 37 °F
Dew Point 36 °F
Humidity 98%
Rainfall 0.00 in
Snow Depth Not available.
UV 0 out of 12
Pollen .10 out of 12
Air Quality Not available.
Flu Activity Not available.
METAR KLCI 311115Z AUTO 00000KT 10SM OVC050 05/01 A3002 RMK AO1

More Conditions Fewer Conditions

Pressure 30.02 in
Visibility 10.0 miles
Clouds Overcast 5000 ft
Windchill 37 °F
Dew Point 36 °F
Humidity 98%
Rainfall 0.00 in
Snow Depth Not available.
UV 0 out of 12
Pollen .10 out of 12
Air Quality Not available.
Flu Activity Not available.
METAR KLCI 311115Z AUTO 00000KT 10SM OVC050 05/01 A3002 RMK AO1

More Conditions Fewer Conditions

10-Day Weather Forecast

Almanac

Astronomy

Oct. 31, 2014 Rise Set
Actual Time
Civil Twilight
Nautical Twilight
Astronomical Twilight
Moon
Length of Visible Light
Length of Day
Tomorrow will be .
, % of the Moon is Illuminated

Today's Extremes

State Highs State Lows

Community

WunderPhotos

Upload Photos

1,766,581 photos uploaded!

WunderBlogs® & News

Nearby

Air Quality

  Air Quality AQ Index Pollutant
Not available.

Snow Depth

Station Depth Elevation

Earthquake Activity

City Distance Mag. Time & Date
Minimum magnitude displayed is 2.5.

Coastal Water Temperatures

Place Temperature

Nearby Weather Stations